Time;durP1;ratioP1;P1;durP2;ratioP2;P2;SDS_P1;SDS_P2;PMS_P1;PMS_P2;Temp;Humidity;BMP_temperature;BMP_pressure;BME280_temperature;BME280_humidity;BME280_pressure;Samples;Min_cycle;Max_cycle;Signal;HPM_P1;HPM_P2
2024/02/16 00:01:18;;;;;;;24.85;10.85;;;5.60;99.90;;;;;;5056103;28;19905;-80
2024/02/16 00:03:43;;;;;;;;;;;5.60;99.90;;;;;;5050549;28;20036;-79
2024/02/16 00:06:09;;;;;;;28.80;14.43;;;5.90;99.90;;;;;;5050374;28;19968;-78
2024/02/16 00:08:38;;;;;;;;;;;5.60;99.90;;;;;;5048951;28;20029;-78
2024/02/16 00:11:04;;;;;;;22.63;11.90;;;5.60;99.90;;;;;;5045927;28;20000;-78
2024/02/16 00:13:30;;;;;;;24.27;12.40;;;5.60;99.90;;;;;;5046212;28;20121;-79
2024/02/16 00:15:57;;;;;;;;;;;5.60;99.90;;;;;;5047525;28;20028;-77
2024/02/16 00:18:22;;;;;;;20.35;10.73;;;5.60;99.90;;;;;;5044571;28;19940;-79
2024/02/16 00:20:48;;;;;;;;;;;5.90;99.90;;;;;;5046441;28;20038;-78
2024/02/16 00:23:14;;;;;;;23.05;12.35;;;5.70;99.90;;;;;;5066392;28;20350;-79
2024/02/16 00:25:40;;;;;;;;;;;5.80;99.90;;;;;;5052407;28;20021;-78
2024/02/16 00:28:06;;;;;;;26.60;13.18;;;5.70;99.90;;;;;;5049067;28;19905;-79
2024/02/16 00:30:31;;;;;;;;;;;5.70;99.90;;;;;;5065806;28;20025;-78
2024/02/16 00:32:57;;;;;;;24.33;11.27;;;5.70;99.90;;;;;;5064387;28;20478;-78
2024/02/16 00:35:23;;;;;;;;;;;6.20;99.90;;;;;;5048615;28;20017;-79
2024/02/16 00:37:49;;;;;;;19.55;11.35;;;5.70;99.90;;;;;;5049222;28;19911;-80
2024/02/16 00:40:14;;;;;;;;;;;6.00;99.90;;;;;;5050097;28;20020;-79
2024/02/16 00:42:40;;;;;;;18.58;10.15;;;5.60;99.90;;;;;;5073004;28;19947;-78
2024/02/16 00:45:06;;;;;;;;;;;5.50;99.90;;;;;;5058046;28;20051;-80
2024/02/16 00:47:32;;;;;;;18.70;9.07;;;5.40;99.90;;;;;;5075606;28;19888;-78
2024/02/16 00:49:58;;;;;;;;;;;5.30;99.90;;;;;;5074306;28;20081;-79
2024/02/16 00:52:24;;;;;;;18.93;10.83;;;5.50;99.90;;;;;;5055576;28;20506;-79
2024/02/16 00:54:50;;;;;;;21.73;10.77;;;5.20;99.90;;;;;;5073489;28;20033;-79
2024/02/16 00:57:16;;;;;;;;;;;5.10;99.90;;;;;;5075130;28;20021;-78
2024/02/16 00:59:42;;;;;;;20.00;11.32;;;5.10;99.90;;;;;;5058643;28;19908;-78
2024/02/16 01:02:09;;;;;;;;;;;5.00;99.90;;;;;;5077326;28;20029;-78
2024/02/16 01:04:35;;;;;;;20.40;11.10;;;5.10;99.90;;;;;;5058933;28;19901;-80
2024/02/16 01:07:00;;;;;;;;;;;5.10;99.90;;;;;;5058380;28;20012;-79
2024/02/16 01:09:26;;;;;;;19.45;10.57;;;5.10;99.90;;;;;;5058559;28;19960;-79
2024/02/16 01:11:52;;;;;;;;;;;5.00;99.90;;;;;;5057718;28;20460;-80
2024/02/16 01:14:18;;;;;;;14.32;9.60;;;5.10;99.90;;;;;;5056914;28;19913;-78
2024/02/16 01:16:45;;;;;;;16.48;10.00;;;4.70;99.90;;;;;;5075908;28;20038;-80
2024/02/16 01:19:11;;;;;;;18.77;10.38;;;5.10;99.90;;;;;;5058650;28;20032;-79
2024/02/16 01:21:37;;;;;;;;;;;5.10;99.90;;;;;;5076664;28;20049;-79
2024/02/16 01:24:03;;;;;;;16.67;9.38;;;4.00;99.90;;;;;;5058629;28;19916;-79
2024/02/16 01:26:29;;;;;;;;;;;4.50;99.90;;;;;;5075506;28;20008;-79
2024/02/16 01:28:55;;;;;;;19.33;10.35;;;4.40;99.90;;;;;;5058229;28;19928;-79
2024/02/16 01:31:20;;;;;;;;;;;4.30;99.90;;;;;;5075322;28;20017;-79
2024/02/16 01:33:46;;;;;;;21.92;10.55;;;4.50;99.90;;;;;;5075693;28;19909;-78
2024/02/16 01:36:12;;;;;;;;;;;4.70;99.90;;;;;;5057969;28;20029;-79
2024/02/16 01:38:38;;;;;;;21.75;10.25;;;4.40;99.90;;;;;;5057356;28;19935;-79
2024/02/16 01:41:04;;;;;;;;;;;4.70;99.90;;;;;;5057317;28;20036;-79
2024/02/16 01:43:30;;;;;;;20.13;11.20;;;4.50;99.90;;;;;;5057445;28;19958;-79
2024/02/16 01:45:58;;;;;;;;;;;5.10;99.90;;;;;;5073797;28;20024;-79
2024/02/16 01:48:25;;;;;;;19.38;10.43;;;4.40;99.90;;;;;;5057584;28;19913;-79
2024/02/16 01:50:53;;;;;;;19.33;10.88;;;4.30;99.90;;;;;;5058856;28;20025;-80
2024/02/16 01:53:20;;;;;;;25.15;12.77;;;4.30;99.90;;;;;;5073878;28;20053;-79
2024/02/16 01:55:49;;;;;;;24.25;12.52;;;4.50;99.90;;;;;;5055861;28;20025;-79
2024/02/16 01:58:15;;;;;;;24.15;13.05;;;4.30;99.90;;;;;;5053222;28;20083;-79
2024/02/16 02:00:43;;;;;;;;;;;4.90;99.90;;;;;;5070832;28;20029;-79
2024/02/16 02:03:09;;;;;;;19.17;12.23;;;4.10;99.90;;;;;;5069323;28;19970;-79
2024/02/16 02:05:45;;;;;;;21.83;11.55;;;4.10;99.90;;;;;;5067505;28;20036;-78
2024/02/16 02:08:11;;;;;;;20.75;10.40;;;3.90;99.90;;;;;;5053362;28;20025;-79
2024/02/16 02:10:37;;;;;;;22.75;11.00;;;4.00;99.90;;;;;;5076631;28;20027;-79
2024/02/16 02:13:03;;;;;;;;;;;4.70;99.90;;;;;;5078439;28;20032;-78
2024/02/16 02:15:28;;;;;;;24.50;11.88;;;4.00;99.90;;;;;;5057596;28;19912;-78
2024/02/16 02:17:54;;;;;;;;;;;4.60;99.90;;;;;;5065276;28;20060;-79
2024/02/16 02:20:20;;;;;;;26.67;13.57;;;4.10;99.90;;;;;;5048791;28;20265;-78
2024/02/16 02:22:46;;;;;;;;;;;4.10;99.90;;;;;;5049113;28;20044;-79
2024/02/16 02:25:11;;;;;;;19.00;11.05;;;4.20;99.90;;;;;;5048129;28;19930;-79
2024/02/16 02:27:37;;;;;;;;;;;4.30;99.90;;;;;;5065543;28;20032;-79
2024/02/16 02:30:05;;;;;;;19.77;11.60;;;4.30;99.90;;;;;;5064820;28;19912;-79
2024/02/16 02:32:30;;;;;;;19.02;10.10;;;4.50;99.90;;;;;;5058132;28;20033;-80
2024/02/16 02:34:56;;;;;;;;;;;4.70;99.90;;;;;;5057267;28;20029;-80
2024/02/16 02:37:22;;;;;;;17.17;10.30;;;4.70;99.90;;;;;;5074369;28;19939;-79
2024/02/16 02:39:48;;;;;;;21.60;10.70;;;5.40;99.90;;;;;;5055912;28;20040;-79
2024/02/16 02:42:14;;;;;;;;;;;4.80;99.90;;;;;;5076043;28;20464;-79
2024/02/16 02:44:40;;;;;;;19.90;10.85;;;4.60;99.90;;;;;;5057226;28;19905;-79
2024/02/16 02:47:05;;;;;;;;;;;5.00;99.90;;;;;;5073316;28;20036;-79
2024/02/16 02:49:34;;;;;;;25.17;11.93;;;4.90;99.90;;;;;;5073712;28;19968;-79
2024/02/16 02:52:00;;;;;;;19.10;11.38;;;5.00;99.90;;;;;;5055453;28;20041;-80
2024/02/16 02:54:26;;;;;;;;;;;5.00;99.90;;;;;;5056348;28;20040;-79
2024/02/16 02:56:53;;;;;;;19.58;11.55;;;5.00;99.90;;;;;;5072994;28;19919;-79
2024/02/16 02:59:18;;;;;;;22.95;13.60;;;5.40;99.90;;;;;;5056046;28;20039;-80
2024/02/16 03:01:45;;;;;;;;;;;5.40;99.90;;;;;;5072942;28;20029;-79
2024/02/16 03:04:11;;;;;;;21.27;12.18;;;4.90;99.90;;;;;;5054991;28;19928;-78
2024/02/16 03:06:36;;;;;;;;;;;5.10;99.90;;;;;;5074124;28;20021;-80
2024/02/16 03:09:03;;;;;;;23.58;13.00;;;5.50;99.90;;;;;;5072622;28;19889;-78
2024/02/16 03:11:28;;;;;;;19.48;11.02;;;4.90;99.90;;;;;;5054519;28;20453;-79
2024/02/16 03:13:54;;;;;;;;;;;5.50;99.90;;;;;;5072556;28;20119;-79
2024/02/16 03:16:20;;;;;;;22.00;12.52;;;5.10;99.90;;;;;;5055174;28;19927;-79
2024/02/16 03:18:45;;;;;;;;;;;5.60;99.90;;;;;;5066881;28;20029;-79
2024/02/16 03:21:17;;;;;;;23.52;12.35;;;5.10;99.90;;;;;;5055171;28;19909;-79
2024/02/16 03:23:43;;;;;;;21.25;13.23;;;4.60;99.90;;;;;;5053822;28;20045;-79
2024/02/16 03:26:20;;;;;;;;;;;5.80;99.90;;;;;;5059950;28;20067;-78
2024/02/16 03:28:49;;;;;;;36.17;18.35;;;5.30;99.90;;;;;;5057648;28;19905;-78
2024/02/16 03:31:20;;;;;;;32.38;16.42;;;5.50;99.90;;;;;;5072834;28;20096;-79
2024/02/16 03:33:47;;;;;;;28.35;13.70;;;5.60;99.90;;;;;;5060091;28;20041;-78
2024/02/16 03:36:14;;;;;;;26.27;13.55;;;6.30;99.90;;;;;;5077521;28;20084;-79
2024/02/16 03:38:46;;;;;;;27.05;14.65;;;5.90;99.90;;;;;;5071661;28;20474;-79
2024/02/16 03:41:16;;;;;;;23.88;13.00;;;6.00;99.90;;;;;;5051241;28;20075;-79
2024/02/16 03:43:42;;;;;;;24.67;13.38;;;5.80;99.90;;;;;;5050631;28;20024;-79
2024/02/16 03:46:08;;;;;;;;;;;5.80;99.90;;;;;;5069810;28;20025;-78
2024/02/16 03:48:34;;;;;;;22.48;12.55;;;5.70;99.90;;;;;;5053426;28;19900;-78
2024/02/16 03:51:00;;;;;;;26.23;14.50;;;6.10;99.90;;;;;;5053608;28;20036;-78
2024/02/16 03:53:26;;;;;;;25.05;13.63;;;5.80;99.90;;;;;;5070195;28;20033;-78
2024/02/16 03:55:52;;;;;;;;;;;6.40;99.90;;;;;;5051683;28;20036;-79
2024/02/16 03:58:19;;;;;;;24.63;13.75;;;5.80;99.90;;;;;;5050466;28;19905;-78
2024/02/16 04:00:45;;;;;;;25.58;14.88;;;5.80;99.90;;;;;;5049989;28;20029;-79
2024/02/16 04:03:10;;;;;;;;;;;5.80;99.90;;;;;;5048569;28;20025;-80
2024/02/16 04:05:39;;;;;;;26.80;14.27;;;5.80;99.90;;;;;;5051136;28;19959;-79
2024/02/16 04:08:06;;;;;;;25.27;14.98;;;5.90;99.90;;;;;;5049455;28;20032;-79
2024/02/16 04:10:33;;;;;;;26.48;14.75;;;5.90;99.90;;;;;;5047755;28;20029;-78
2024/02/16 04:12:58;;;;;;;23.13;14.45;;;5.90;99.90;;;;;;5047984;28;20021;-79
2024/02/16 04:15:24;;;;;;;;;;;6.20;99.90;;;;;;5049270;28;20052;-79
2024/02/16 04:17:50;;;;;;;29.75;14.35;;;6.00;99.90;;;;;;5056435;28;19919;-79
2024/02/16 04:20:16;;;;;;;;;;;6.00;99.90;;;;;;5073702;28;20029;-79
2024/02/16 04:22:42;;;;;;;25.83;13.45;;;6.10;99.90;;;;;;5055237;28;19917;-80
2024/02/16 04:25:08;;;;;;;21.90;12.65;;;6.70;99.90;;;;;;5072276;28;20009;-79
2024/02/16 04:27:35;;;;;;;21.20;10.90;;;6.20;99.90;;;;;;5054095;28;20032;-79
2024/02/16 04:30:01;;;;;;;21.75;10.88;;;6.20;99.90;;;;;;5055269;28;20124;-78
2024/02/16 04:32:27;;;;;;;21.83;10.48;;;6.20;99.90;;;;;;5047708;28;20059;-78
2024/02/16 04:34:52;;;;;;;;;;;6.20;99.90;;;;;;5053408;28;20037;-78
2024/02/16 04:37:19;;;;;;;18.08;10.73;;;6.20;99.90;;;;;;5068183;28;19904;-78
2024/02/16 04:39:45;;;;;;;25.23;15.00;;;6.10;99.90;;;;;;5053925;28;20074;-79
2024/02/16 04:42:11;;;;;;;32.05;19.98;;;6.10;99.90;;;;;;5053964;28;20013;-80
2024/02/16 04:44:40;;;;;;;;;;;6.30;99.90;;;;;;5072454;28;20040;-79
2024/02/16 04:47:06;;;;;;;29.13;17.02;;;6.00;99.90;;;;;;5073168;28;19912;-79
2024/02/16 04:49:32;;;;;;;;;;;6.60;99.90;;;;;;5073016;28;20029;-79
2024/02/16 04:51:57;;;;;;;26.27;16.55;;;6.40;99.90;;;;;;5053862;28;19905;-79
2024/02/16 04:54:23;;;;;;;;;;;5.90;99.90;;;;;;5073455;28;20409;-78
2024/02/16 04:56:49;;;;;;;27.38;15.55;;;5.90;99.90;;;;;;5051297;28;19912;-79
2024/02/16 04:59:16;;;;;;;28.58;14.90;;;6.20;99.90;;;;;;5049788;28;20032;-79
2024/02/16 05:01:44;;;;;;;31.77;15.60;;;5.80;99.90;;;;;;5055517;28;20027;-79
2024/02/16 05:04:12;;;;;;;28.92;16.25;;;6.20;99.90;;;;;;5077604;28;20059;-79
2024/02/16 05:06:41;;;;;;;25.50;14.88;;;6.10;99.90;;;;;;5072702;28;20060;-79
2024/02/16 05:09:06;;;;;;;31.50;14.95;;;6.00;99.90;;;;;;5054210;28;20025;-78
2024/02/16 05:11:32;;;;;;;;;;;6.20;99.90;;;;;;5071890;28;20033;-78
2024/02/16 05:13:58;;;;;;;24.25;14.38;;;6.10;99.90;;;;;;5071905;28;19940;-80
2024/02/16 05:16:24;;;;;;;;;;;6.30;99.90;;;;;;5054404;28;20032;-79
2024/02/16 05:18:50;;;;;;;24.83;13.57;;;6.00;99.90;;;;;;5072087;28;19905;-79
2024/02/16 05:21:16;;;;;;;25.25;15.05;;;6.20;99.90;;;;;;5064746;22;1250747;-79
2024/02/16 05:23:41;;;;;;;;;;;6.10;99.90;;;;;;5096776;28;20051;-79
2024/02/16 05:26:07;;;;;;;20.80;12.43;;;6.10;99.90;;;;;;5110825;28;19914;-78
2024/02/16 05:28:33;;;;;;;;;;;6.20;99.90;;;;;;5109515;28;20016;-78
2024/02/16 05:31:12;;;;;;;24.08;14.30;;;6.00;99.90;;;;;;5113824;28;19926;-79
2024/02/16 05:33:39;;;;;;;21.92;14.38;;;5.90;99.90;;;;;;5088690;28;20071;-78
2024/02/16 05:36:05;;;;;;;27.85;16.05;;;5.90;99.90;;;;;;5088714;28;20024;-79
2024/02/16 05:38:40;;;;;;;29.02;14.95;;;5.90;99.90;;;;;;5085252;28;20036;-79
2024/02/16 05:41:08;;;;;;;27.83;15.63;;;5.90;99.90;;;;;;5094151;28;20023;-78
2024/02/16 05:43:34;;;;;;;24.33;14.00;;;5.90;99.90;;;;;;5104586;28;20408;-77
2024/02/16 05:46:00;;;;;;;;;;;6.00;99.90;;;;;;5103094;28;20108;-78
2024/02/16 05:48:30;;;;;;;24.65;13.00;;;6.00;99.90;;;;;;5069470;28;19919;-78
2024/02/16 05:51:02;;;;;;;25.33;13.48;;;6.00;99.90;;;;;;5065894;28;20062;-78
2024/02/16 05:53:28;;;;;;;22.08;12.65;;;6.10;99.90;;;;;;5065560;28;20033;-78
2024/02/16 05:55:53;;;;;;;;;;;6.10;99.90;;;;;;5094492;28;20088;-79
2024/02/16 05:58:19;;;;;;;22.08;12.35;;;6.10;99.90;;;;;;5109164;28;19908;-79
2024/02/16 06:00:47;;;;;;;;;;;6.10;99.90;;;;;;5104954;28;20040;-79
2024/02/16 06:03:13;;;;;;;18.75;11.50;;;6.10;99.90;;;;;;5103366;28;20395;-77
2024/02/16 06:05:40;;;;;;;;;;;6.00;99.90;;;;;;5095212;28;20024;-80
2024/02/16 06:08:07;;;;;;;20.90;12.65;;;5.90;99.90;;;;;;5132350;28;19907;-79
2024/02/16 06:10:33;;;;;;;26.17;13.13;;;5.90;99.90;;;;;;5108522;28;20024;-78
2024/02/16 06:12:59;;;;;;;24.17;13.93;;;6.00;99.90;;;;;;5109401;28;20037;-79
2024/02/16 06:15:25;;;;;;;;;;;5.90;99.90;;;;;;5094016;28;20053;-79
2024/02/16 06:17:51;;;;;;;24.92;13.57;;;6.00;99.90;;;;;;5092594;28;20002;-79
2024/02/16 06:20:16;;;;;;;;;;;6.00;99.90;;;;;;5081531;28;20033;-78
2024/02/16 06:22:42;;;;;;;33.10;17.50;;;6.00;99.90;;;;;;5076905;28;19912;-79
2024/02/16 06:25:08;;;;;;;;;;;5.90;99.90;;;;;;5095041;28;20028;-79
2024/02/16 06:27:34;;;;;;;28.05;16.17;;;5.90;99.90;;;;;;5094289;28;19912;-79
2024/02/16 06:30:00;;;;;;;;;;;6.00;99.90;;;;;;5078559;28;20021;-78
2024/02/16 06:32:26;;;;;;;23.20;14.52;;;5.90;99.90;;;;;;5076287;28;19905;-78
2024/02/16 06:34:53;;;;;;;32.95;15.07;;;5.90;99.90;;;;;;5095147;28;20084;-79
2024/02/16 06:37:19;;;;;;;34.88;15.88;;;6.10;99.90;;;;;;5077933;28;20046;-79
2024/02/16 06:39:45;;;;;;;;;;;6.10;99.90;;;;;;5095905;28;20016;-79
2024/02/16 06:42:13;;;;;;;32.28;14.55;;;6.10;99.90;;;;;;5092443;28;19926;-78
2024/02/16 06:44:39;;;;;;;24.08;13.38;;;6.10;99.90;;;;;;5072866;28;20468;-79
2024/02/16 06:47:06;;;;;;;24.02;13.55;;;6.20;99.90;;;;;;5094566;28;20036;-80
2024/02/16 06:49:31;;;;;;;21.55;12.13;;;6.50;99.90;;;;;;5078199;28;20021;-79
2024/02/16 06:51:57;;;;;;;;;;;6.80;99.90;;;;;;5096303;28;20037;-78
2024/02/16 06:54:24;;;;;;;25.02;12.15;;;7.40;99.90;;;;;;5078270;28;19918;-79
2024/02/16 06:56:51;;;;;;;20.95;10.18;;;7.80;99.90;;;;;;5077502;28;20079;-79
2024/02/16 06:59:17;;;;;;;18.45;10.70;;;8.20;99.90;;;;;;5094919;28;20017;-79
2024/02/16 07:01:43;;;;;;;17.50;11.05;;;8.60;99.90;;;;;;5081642;28;20031;-79
2024/02/16 07:04:09;;;;;;;;;;;8.90;99.90;;;;;;5563370;22;20031;-77
2024/02/16 07:06:35;;;;;;;19.20;10.93;;;9.30;99.90;;;;;;5138200;28;19908;-79
2024/02/16 07:09:02;;;;;;;17.77;10.30;;;9.80;99.90;;;;;;5119038;28;20016;-79
2024/02/16 07:14:03;;;;;;;22.52;10.52;;;10.30;99.10;;;;;;5147250;22;20422;-79
2024/02/16 07:16:30;;;;;;;20.40;11.77;;;10.60;98.10;;;;;;5018353;28;20030;-79
2024/02/16 07:18:56;;;;;;;23.20;14.30;;;10.80;96.10;;;;;;5017663;28;20038;-79
2024/02/16 07:21:23;;;;;;;;;;;10.90;94.50;;;;;;4999540;28;20086;-79
2024/02/16 07:23:48;;;;;;;18.70;10.50;;;11.30;91.70;;;;;;4999573;28;19894;-78
2024/02/16 07:26:14;;;;;;;;;;;11.70;88.20;;;;;;4997379;28;20418;-78
2024/02/16 07:28:40;;;;;;;16.02;8.85;;;11.60;87.90;;;;;;5013767;28;19905;-79
2024/02/16 07:31:05;;;;;;;;;;;11.80;84.70;;;;;;4988883;28;20091;-79
2024/02/16 07:33:31;;;;;;;18.52;8.85;;;11.90;80.70;;;;;;4986113;28;19922;-79
2024/02/16 07:35:57;;;;;;;15.18;9.18;;;12.00;79.70;;;;;;5015672;28;20022;-79
2024/02/16 07:38:23;;;;;;;;;;;12.10;78.30;;;;;;5000230;28;20026;-78
2024/02/16 07:40:50;;;;;;;15.30;8.48;;;12.10;77.70;;;;;;4998223;28;20192;-80
2024/02/16 07:43:17;;;;;;;12.32;8.43;;;12.30;74.70;;;;;;4997099;28;20039;-79
2024/02/16 07:45:43;;;;;;;15.38;8.50;;;12.20;74.20;;;;;;4999522;28;20041;-78
2024/02/16 07:48:08;;;;;;;;;;;12.70;71.60;;;;;;5010952;28;20027;-79
2024/02/16 07:50:34;;;;;;;18.15;8.48;;;12.80;68.40;;;;;;5010736;28;19909;-78
2024/02/16 07:53:00;;;;;;;17.10;9.50;;;12.60;70.10;;;;;;4994919;28;20090;-79
2024/02/16 07:55:26;;;;;;;25.23;15.25;;;12.70;70.70;;;;;;4995287;28;20476;-78
2024/02/16 07:57:55;;;;;;;;;;;13.00;68.10;;;;;;5562347;22;20041;-79
2024/02/16 08:00:21;;;;;;;17.27;10.35;;;13.20;65.90;;;;;;5020977;28;19916;-79
2024/02/16 08:02:46;;;;;;;;;;;13.30;70.90;;;;;;5034477;28;20026;-78
2024/02/16 08:05:13;;;;;;;13.48;8.68;;;13.40;73.10;;;;;;5016049;28;19910;-79
2024/02/16 08:07:42;;;;;;;14.00;7.88;;;13.50;73.80;;;;;;5035568;28;20038;-79
2024/02/16 08:10:08;;;;;;;13.32;8.10;;;13.70;73.60;;;;;;5019529;28;20022;-79
2024/02/16 08:12:35;;;;;;;16.38;10.05;;;14.10;69.50;;;;;;5018866;28;20041;-79
2024/02/16 08:15:06;;;;;;;19.40;10.82;;;14.30;69.90;;;;;;5035660;28;20037;-79
2024/02/16 08:17:33;;;;;;;17.67;9.95;;;14.50;69.90;;;;;;5034726;28;20052;-78
2024/02/16 08:19:59;;;;;;;21.98;9.70;;;14.60;68.80;;;;;;5031884;28;20040;-80
2024/02/16 08:22:25;;;;;;;17.63;10.80;;;14.70;68.80;;;;;;4999777;28;20120;-83
2024/02/16 08:24:51;;;;;;;18.08;10.30;;;14.80;67.00;;;;;;5010412;28;20647;-88
2024/02/16 08:27:17;;;;;;;15.95;9.63;;;14.80;65.90;;;;;;5009372;28;20069;-87
2024/02/16 08:29:43;;;;;;;17.90;9.73;;;15.00;66.80;;;;;;5008857;28;20025;-85
2024/02/16 08:32:10;;;;;;;14.93;9.40;;;15.10;64.80;;;;;;4991670;28;20841;-84
2024/02/16 08:34:38;;;;;;;14.32;8.30;;;15.30;63.80;;;;;;5009080;28;20038;-88
2024/02/16 08:37:05;;;;;;;26.42;11.18;;;15.40;61.80;;;;;;5009028;28;20022;-87
2024/02/16 08:39:31;;;;;;;18.58;10.73;;;15.30;60.90;;;;;;5009137;28;20133;-86
2024/02/16 08:41:58;;;;;;;15.38;10.95;;;15.20;61.40;;;;;;5009094;28;20125;-85
2024/02/16 08:44:24;;;;;;;15.60;11.25;;;15.00;61.10;;;;;;5009054;28;20026;-86
2024/02/16 08:46:50;;;;;;;26.92;11.95;;;15.00;60.50;;;;;;4991529;28;20032;-85
2024/02/16 08:49:16;;;;;;;22.48;11.52;;;14.70;60.10;;;;;;4991553;28;20030;-86
2024/02/16 08:51:42;;;;;;;18.30;11.82;;;14.50;60.00;;;;;;5010219;28;20030;-80
2024/02/16 08:54:08;;;;;;;19.75;12.25;;;14.10;60.30;;;;;;5029052;28;20101;-79
2024/02/16 08:56:35;;;;;;;22.67;13.38;;;13.80;61.50;;;;;;5029197;28;20010;-79
2024/02/16 08:59:02;;;;;;;22.90;13.10;;;13.70;62.30;;;;;;5017969;28;20034;-78
2024/02/16 09:01:36;;;;;;;20.13;13.93;;;13.70;62.40;;;;;;5014744;28;20050;-78
2024/02/16 09:04:02;;;;;;;14.07;8.90;;;13.70;62.70;;;;;;5034128;28;20034;-79
2024/02/16 09:06:28;;;;;;;18.40;8.02;;;13.80;59.50;;;;;;5006246;28;20564;-85
2024/02/16 09:08:55;;;;;;;13.38;7.05;;;14.30;58.40;;;;;;5008687;28;20034;-88
2024/02/16 09:11:21;;;;;;;11.82;7.68;;;15.00;57.90;;;;;;4991151;28;20121;-86
2024/02/16 09:13:47;;;;;;;13.93;6.95;;;15.70;53.00;;;;;;4990766;28;20073;-87
2024/02/16 09:16:12;;;;;;;13.52;6.22;;;16.00;50.90;;;;;;5008435;28;20056;-82
2024/02/16 09:18:38;;;;;;;11.07;6.10;;;16.20;49.90;;;;;;4994741;28;20034;-79
2024/02/16 09:21:05;;;;;;;11.88;6.45;;;16.60;50.00;;;;;;5012038;28;20520;-83
2024/02/16 09:23:32;;;;;;;15.45;6.75;;;16.80;49.30;;;;;;4995979;28;20041;-79
2024/02/16 09:25:59;;;;;;;12.60;6.45;;;16.80;48.60;;;;;;5012134;28;20054;-84
2024/02/16 09:28:24;;;;;;;9.50;5.75;;;17.00;47.90;;;;;;5012125;28;20033;-83
2024/02/16 09:30:50;;;;;;;16.10;6.78;;;17.10;46.80;;;;;;4994544;28;20409;-81
2024/02/16 09:33:16;;;;;;;10.77;6.80;;;17.40;45.80;;;;;;4994151;28;20104;-79
2024/02/16 09:35:41;;;;;;;13.20;5.97;;;17.40;46.70;;;;;;5011992;28;20038;-83
2024/02/16 09:38:10;;;;;;;9.45;5.80;;;17.40;45.20;;;;;;4994172;28;20033;-84
2024/02/16 09:40:36;;;;;;;11.10;5.53;;;17.30;44.30;;;;;;4994419;28;20040;-81
2024/02/16 09:43:02;;;;;;;12.10;5.22;;;17.40;42.60;;;;;;5011443;28;20022;-83
2024/02/16 09:45:30;;;;;;;10.48;5.53;;;17.30;43.00;;;;;;4993803;28;20087;-84
2024/02/16 09:47:57;;;;;;;10.93;5.55;;;17.20;44.30;;;;;;5011527;28;20022;-84
2024/02/16 09:50:23;;;;;;;22.13;7.25;;;17.30;43.60;;;;;;5011513;28;20666;-82
2024/02/16 09:52:50;;;;;;;9.23;6.75;;;17.10;43.20;;;;;;5011440;28;20529;-83
2024/02/16 09:55:20;;;;;;;17.30;6.72;;;16.90;44.70;;;;;;5011427;28;20725;-84
2024/02/16 09:57:46;;;;;;;12.60;6.70;;;16.80;43.90;;;;;;5011330;28;20154;-85
2024/02/16 10:00:13;;;;;;;10.95;6.90;;;16.40;43.50;;;;;;4993483;28;20506;-85
2024/02/16 10:02:46;;;;;;;11.43;6.82;;;16.20;45.00;;;;;;4993577;28;20022;-85
2024/02/16 10:05:15;;;;;;;10.85;6.95;;;16.10;44.10;;;;;;5010163;28;20034;-85
2024/02/16 10:07:42;;;;;;;12.30;5.97;;;16.00;44.50;;;;;;4987664;28;20026;-86
2024/02/16 10:10:29;;;;;;;11.60;6.85;;;15.80;45.40;;;;;;4981942;28;20025;-86
2024/02/16 10:13:03;;;;;;;8.02;5.25;;;15.50;45.20;;;;;;4992999;28;20065;-80
2024/02/16 10:15:29;;;;;;;41.22;19.77;;;15.10;46.20;;;;;;5004546;28;20054;-78
2024/02/16 10:18:02;;;;;;;14.77;8.60;;;14.80;47.00;;;;;;5005040;28;20030;-79
2024/02/16 10:20:34;;;;;;;10.50;6.75;;;14.60;47.80;;;;;;5011179;28;20026;-79
2024/02/16 10:23:10;;;;;;;13.82;7.25;;;14.30;48.20;;;;;;5030398;28;20022;-79
2024/02/16 10:25:42;;;;;;;11.52;6.55;;;13.90;49.00;;;;;;5010940;28;20494;-78
2024/02/16 10:28:14;;;;;;;12.38;6.18;;;13.60;50.30;;;;;;5028653;28;20038;-78
2024/02/16 10:30:43;;;;;;;11.63;6.03;;;13.50;50.40;;;;;;4997408;28;20033;-77
2024/02/16 10:33:13;;;;;;;12.68;6.70;;;13.20;51.20;;;;;;5013800;28;20042;-79
2024/02/16 10:35:39;;;;;;;11.13;6.47;;;13.20;52.70;;;;;;5012248;28;20045;-77
2024/02/16 10:38:06;;;;;;;;;;;13.10;53.30;;;;;;4998684;28;20041;-77
2024/02/16 10:40:38;;;;;;;15.15;7.25;;;13.10;54.10;;;;;;5036245;28;19886;-78
2024/02/16 10:43:07;;;;;;;14.02;6.43;;;13.00;54.00;;;;;;5014008;28;20033;-77
2024/02/16 10:45:37;;;;;;;10.93;6.10;;;12.90;54.20;;;;;;5034289;28;20037;-78
2024/02/16 10:48:05;;;;;;;11.43;6.60;;;13.00;54.90;;;;;;5021332;28;20045;-78
2024/02/16 10:50:34;;;;;;;11.98;6.07;;;12.90;54.50;;;;;;5032587;28;20041;-78
2024/02/16 10:53:18;;;;;;;9.20;5.95;;;12.70;53.90;;;;;;5029299;28;20041;-77
2024/02/16 10:55:44;;;;;;;8.70;5.88;;;12.70;54.80;;;;;;5018735;28;20033;-78
2024/02/16 10:58:11;;;;;;;9.07;5.53;;;12.60;55.00;;;;;;5010623;28;20054;-77
2024/02/16 11:00:48;;;;;;;12.13;6.85;;;12.50;55.00;;;;;;5007435;28;20049;-79
2024/02/16 11:03:17;;;;;;;13.75;6.85;;;12.40;55.70;;;;;;5015405;28;20057;-79
2024/02/16 11:05:47;;;;;;;10.18;5.85;;;12.40;56.70;;;;;;5014740;28;20037;-79
2024/02/16 11:08:14;;;;;;;10.90;5.68;;;12.30;56.20;;;;;;5029676;28;20061;-78
2024/02/16 11:10:40;;;;;;;9.57;5.45;;;12.30;57.30;;;;;;5015137;28;20473;-79
2024/02/16 11:13:07;;;;;;;;;;;12.30;57.30;;;;;;5014880;28;20061;-78
2024/02/16 11:15:39;;;;;;;9.93;6.10;;;12.30;57.60;;;;;;5032654;28;19909;-78
2024/02/16 11:18:04;;;;;;;13.68;6.65;;;12.20;58.10;;;;;;5004813;28;20022;-78
2024/02/16 11:20:41;;;;;;;;;;;12.20;58.80;;;;;;5010182;28;20036;-81
2024/02/16 11:23:14;;;;;;;11.93;6.43;;;12.20;59.60;;;;;;5010723;28;19941;-79
2024/02/16 11:25:49;;;;;;;11.50;7.00;;;12.30;59.90;;;;;;5027973;28;20030;-78
2024/02/16 11:28:18;;;;;;;10.88;6.22;;;12.20;59.50;;;;;;5009043;28;20034;-78
2024/02/16 11:30:44;;;;;;;11.13;6.63;;;12.20;60.10;;;;;;5028261;28;20045;-78
2024/02/16 11:33:13;;;;;;;12.07;6.40;;;12.20;58.90;;;;;;5022925;28;20069;-77
2024/02/16 11:35:39;;;;;;;12.25;7.43;;;12.20;59.60;;;;;;5009177;28;20115;-78
2024/02/16 11:38:05;;;;;;;14.20;7.15;;;12.10;60.60;;;;;;5009377;28;20038;-77
2024/02/16 11:40:31;;;;;;;;;;;12.10;60.40;;;;;;5024582;28;20030;-77
2024/02/16 11:43:00;;;;;;;11.50;7.47;;;12.10;60.80;;;;;;5005084;28;19968;-77
2024/02/16 11:45:26;;;;;;;13.52;8.23;;;12.00;60.70;;;;;;5006717;28;20565;-76
2024/02/16 11:48:02;;;;;;;;;;;12.00;61.50;;;;;;5008637;28;20033;-78
2024/02/16 11:50:31;;;;;;;11.32;7.80;;;12.00;61.40;;;;;;5025809;28;19913;-77
2024/02/16 11:52:57;;;;;;;12.05;6.78;;;12.00;61.90;;;;;;5026093;28;20026;-78
2024/02/16 11:55:23;;;;;;;17.33;7.55;;;11.90;62.60;;;;;;5008181;28;20462;-78
2024/02/16 11:57:50;;;;;;;;;;;11.90;62.80;;;;;;5013136;28;20064;-78
2024/02/16 12:00:22;;;;;;;14.93;9.13;;;11.90;63.60;;;;;;5023786;28;19905;-78
2024/02/16 12:02:58;;;;;;;13.80;8.68;;;11.90;63.30;;;;;;5026545;28;20025;-78
2024/02/16 12:05:23;;;;;;;14.35;8.85;;;11.90;63.50;;;;;;5007598;28;20037;-78
2024/02/16 12:07:49;;;;;;;;;;;11.80;63.70;;;;;;5026644;28;20029;-78
2024/02/16 12:10:15;;;;;;;13.48;8.63;;;11.90;64.50;;;;;;5025518;28;19964;-78
2024/02/16 12:12:42;;;;;;;;;;;11.90;64.20;;;;;;5025524;28;20030;-79
2024/02/16 12:15:21;;;;;;;14.90;8.13;;;11.80;64.70;;;;;;5023446;28;19917;-79
2024/02/16 12:17:46;;;;;;;15.50;9.48;;;11.90;64.90;;;;;;5023770;28;20030;-79
2024/02/16 12:20:13;;;;;;;;;;;11.80;64.70;;;;;;5023168;28;20077;-79
2024/02/16 12:22:39;;;;;;;13.68;8.98;;;11.80;64.20;;;;;;5026896;28;20378;-79
2024/02/16 12:25:04;;;;;;;;;;;11.70;64.90;;;;;;5008833;28;20040;-78
2024/02/16 12:27:30;;;;;;;18.27;9.25;;;11.70;65.70;;;;;;5026695;28;19936;-78
2024/02/16 12:29:56;;;;;;;;;;;11.70;65.80;;;;;;5010585;28;20085;-78
2024/02/16 12:32:21;;;;;;;15.70;9.63;;;11.70;65.60;;;;;;5009375;28;19913;-78
2024/02/16 12:34:47;;;;;;;;;;;11.70;66.40;;;;;;5027670;28;20069;-79
2024/02/16 12:37:12;;;;;;;13.90;7.95;;;11.70;66.90;;;;;;5027776;28;19925;-78
2024/02/16 12:39:39;;;;;;;;;;;11.80;66.80;;;;;;5007115;28;20026;-78
2024/02/16 12:42:04;;;;;;;14.93;8.20;;;11.80;66.70;;;;;;5010665;28;19905;-78
2024/02/16 12:44:33;;;;;;;;;;;11.70;66.40;;;;;;5026962;28;20112;-79
2024/02/16 12:46:59;;;;;;;15.95;7.88;;;11.80;66.50;;;;;;5008580;28;19905;-78
2024/02/16 12:49:25;;;;;;;;;;;11.80;67.30;;;;;;5029409;28;20044;-77
2024/02/16 12:51:51;;;;;;;14.88;8.15;;;11.90;66.90;;;;;;5014628;28;19906;-79
2024/02/16 12:54:20;;;;;;;15.75;7.72;;;11.80;66.10;;;;;;5015781;28;20034;-79
2024/02/16 12:56:47;;;;;;;13.93;7.90;;;11.70;65.60;;;;;;5035383;28;20044;-78
2024/02/16 12:59:12;;;;;;;13.00;7.82;;;11.70;66.30;;;;;;5015351;28;20050;-79
2024/02/16 13:01:38;;;;;;;;;;;11.80;66.50;;;;;;5016243;28;20306;-79
2024/02/16 13:04:05;;;;;;;15.07;7.95;;;11.80;66.30;;;;;;5014899;28;19905;-79